Time;durP1;ratioP1;P1;durP2;ratioP2;P2;SDS_P1;SDS_P2;PMS_P1;PMS_P2;Temp;Humidity;BMP_temperature;BMP_pressure;BME280_temperature;BME280_humidity;BME280_pressure;Samples;Min_cycle;Max_cycle;Signal;HPM_P1;HPM_P2
2022/11/24 00:00:52;;;;;;;39.65;19.48;;;7.20;99.90;;;;;;5035824;28;20046;-73
2022/11/24 00:03:17;;;;;;;31.77;19.08;;;7.10;99.90;;;;;;5036007;28;20051;-73
2022/11/24 00:05:43;;;;;;;34.40;19.60;;;7.10;99.90;;;;;;5016063;28;20462;-73
2022/11/24 00:08:09;;;;;;;36.17;19.15;;;7.00;99.90;;;;;;5016189;28;20073;-73
2022/11/24 00:10:35;;;;;;;39.67;19.63;;;6.90;99.90;;;;;;5016140;28;20458;-73
2022/11/24 00:13:00;;;;;;;31.10;18.33;;;6.90;99.90;;;;;;5015750;28;20453;-72
2022/11/24 00:15:26;;;;;;;35.45;18.45;;;6.80;99.90;;;;;;5015408;28;20042;-73
2022/11/24 00:17:51;;;;;;;39.85;20.00;;;6.80;99.90;;;;;;5015545;28;20049;-73
2022/11/24 00:20:17;;;;;;;34.97;20.40;;;6.70;99.90;;;;;;5015509;28;20068;-73
2022/11/24 00:22:43;;;;;;;40.97;19.65;;;6.70;99.90;;;;;;5016018;28;20060;-73
2022/11/24 00:25:08;;;;;;;35.88;19.88;;;6.60;99.90;;;;;;5015904;28;20354;-73
2022/11/24 00:27:34;;;;;;;43.67;21.00;;;6.60;99.90;;;;;;5015551;28;20061;-73
2022/11/24 00:30:00;;;;;;;38.35;20.35;;;6.60;99.90;;;;;;5015526;28;20056;-73
2022/11/24 00:32:29;;;;;;;39.25;19.63;;;6.50;99.90;;;;;;5016220;28;20078;-74
2022/11/24 00:34:54;;;;;;;38.40;19.35;;;6.50;99.90;;;;;;5015325;28;20125;-73
2022/11/24 00:37:20;;;;;;;37.45;20.02;;;6.50;99.90;;;;;;5015714;28;20085;-73
2022/11/24 00:39:46;;;;;;;35.10;19.90;;;6.40;99.90;;;;;;5015471;28;20049;-73
2022/11/24 00:42:13;;;;;;;42.78;20.10;;;6.40;99.90;;;;;;5015230;28;20370;-73
2022/11/24 00:44:39;;;;;;;40.72;19.20;;;6.40;99.90;;;;;;5015440;28;20041;-73
2022/11/24 00:47:04;;;;;;;45.83;19.20;;;6.40;99.90;;;;;;5015384;28;20053;-72
2022/11/24 00:49:30;;;;;;;33.35;18.73;;;6.30;99.90;;;;;;5015312;28;20034;-73
2022/11/24 00:51:56;;;;;;;34.95;17.95;;;6.30;99.90;;;;;;5034717;28;20405;-73
2022/11/24 00:54:22;;;;;;;40.72;18.83;;;6.20;99.90;;;;;;5000088;28;20049;-73
2022/11/24 00:56:47;;;;;;;45.65;17.90;;;6.20;99.90;;;;;;5017344;28;20405;-73
2022/11/24 00:59:13;;;;;;;45.90;18.83;;;6.20;99.90;;;;;;5035298;28;20357;-73
2022/11/24 01:01:40;;;;;;;43.80;18.33;;;6.20;99.90;;;;;;5035600;28;20318;-73
2022/11/24 01:04:06;;;;;;;40.85;17.00;;;6.20;99.90;;;;;;5025115;28;20038;-73
2022/11/24 01:06:31;;;;;;;43.83;17.77;;;6.20;99.90;;;;;;5015727;28;20052;-73
2022/11/24 01:08:57;;;;;;;36.45;17.50;;;6.20;99.90;;;;;;5015205;28;20042;-73
2022/11/24 01:11:23;;;;;;;41.80;16.55;;;6.20;99.90;;;;;;5014711;28;20060;-73
2022/11/24 01:13:52;;;;;;;37.42;15.95;;;6.20;99.90;;;;;;5015682;28;20129;-73
2022/11/24 01:16:22;;;;;;;48.08;16.17;;;6.20;99.90;;;;;;5015080;28;20058;-72
2022/11/24 01:18:48;;;;;;;38.40;15.07;;;6.10;99.90;;;;;;5014718;28;20054;-73
2022/11/24 01:21:15;;;;;;;44.28;15.00;;;6.20;99.90;;;;;;5014418;28;20085;-72
2022/11/24 01:23:41;;;;;;;45.50;15.73;;;6.10;99.90;;;;;;5014780;28;20038;-74
2022/11/24 01:26:08;;;;;;;36.45;13.98;;;6.10;99.90;;;;;;5015499;28;20041;-73
2022/11/24 01:28:36;;;;;;;45.92;15.75;;;6.10;99.90;;;;;;5019194;28;20077;-73
2022/11/24 01:31:04;;;;;;;36.25;14.30;;;6.10;99.90;;;;;;5018705;28;20049;-73
2022/11/24 01:33:30;;;;;;;43.22;13.82;;;6.10;99.90;;;;;;5018082;28;20056;-73
2022/11/24 01:35:57;;;;;;;42.92;13.60;;;6.10;99.90;;;;;;5018524;28;20040;-73
2022/11/24 01:38:24;;;;;;;47.20;14.52;;;6.10;99.90;;;;;;5018833;28;20413;-73
2022/11/24 01:41:03;;;;;;;42.75;13.80;;;6.10;99.90;;;;;;5018398;28;20505;-73
2022/11/24 01:43:28;;;;;;;44.58;13.82;;;6.10;99.90;;;;;;5018607;28;20116;-74
2022/11/24 01:45:55;;;;;;;47.15;13.65;;;6.00;99.90;;;;;;5018845;28;20125;-74
2022/11/24 01:48:30;;;;;;;48.95;14.52;;;6.00;99.90;;;;;;5018347;28;20050;-73
2022/11/24 01:51:16;;;;;;;42.92;12.95;;;6.10;99.90;;;;;;5023047;28;20050;-72
2022/11/24 01:53:46;;;;;;;45.55;13.48;;;6.00;99.90;;;;;;5018449;28;20088;-73
2022/11/24 01:56:12;;;;;;;44.72;12.50;;;6.00;99.90;;;;;;5018352;28;20080;-73
2022/11/24 01:58:40;;;;;;;48.72;14.05;;;6.00;99.90;;;;;;5018483;28;20053;-72
2022/11/24 02:01:07;;;;;;;42.20;13.15;;;6.10;99.90;;;;;;5019004;28;20076;-74
2022/11/24 02:03:37;;;;;;;52.33;13.82;;;6.20;99.90;;;;;;5018054;28;20045;-73
2022/11/24 02:06:11;;;;;;;47.15;13.18;;;6.30;99.90;;;;;;5018519;28;20120;-73
2022/11/24 02:09:10;;;;;;;54.08;12.65;;;6.30;99.90;;;;;;5038218;28;20354;-74
2022/11/24 02:11:39;;;;;;;43.40;11.57;;;6.40;99.90;;;;;;5038133;28;20453;-73
2022/11/24 02:14:08;;;;;;;37.03;11.18;;;6.50;99.90;;;;;;5037784;28;20103;-73
2022/11/24 02:16:35;;;;;;;41.40;11.18;;;6.50;99.90;;;;;;5018834;28;20133;-73
2022/11/24 02:19:10;;;;;;;48.35;11.40;;;6.50;99.90;;;;;;5017871;28;20053;-73
2022/11/24 02:21:35;;;;;;;33.30;10.38;;;6.50;99.90;;;;;;5017962;28;20057;-74
2022/11/24 02:24:01;;;;;;;44.42;10.27;;;6.50;99.90;;;;;;5017843;28;20061;-74
2022/11/24 02:26:47;;;;;;;47.67;10.38;;;6.50;99.90;;;;;;5017685;28;20435;-73
2022/11/24 02:29:13;;;;;;;48.40;10.60;;;6.50;99.90;;;;;;5017494;28;20108;-73
2022/11/24 02:31:54;;;;;;;44.10;10.32;;;6.50;99.90;;;;;;4998021;28;20038;-72
2022/11/24 02:34:19;;;;;;;50.67;10.10;;;6.40;99.90;;;;;;4998634;28;20049;-73
2022/11/24 02:36:45;;;;;;;40.60;10.13;;;6.40;99.90;;;;;;4997904;28;20038;-73
2022/11/24 02:39:12;;;;;;;33.70;9.27;;;6.30;99.90;;;;;;4997640;28;20057;-73
2022/11/24 02:41:45;;;;;;;39.92;10.63;;;6.30;99.90;;;;;;4997925;28;20046;-73
2022/11/24 02:44:14;;;;;;;40.83;9.75;;;6.20;99.90;;;;;;5000064;28;20078;-74
2022/11/24 02:46:40;;;;;;;33.83;9.85;;;6.10;99.90;;;;;;5017484;28;20125;-72
2022/11/24 02:49:05;;;;;;;35.35;9.05;;;6.20;99.90;;;;;;5017907;28;20129;-73
2022/11/24 02:51:33;;;;;;;39.03;9.52;;;6.10;99.90;;;;;;5017018;28;20042;-73
2022/11/24 02:53:59;;;;;;;48.13;10.60;;;6.10;99.90;;;;;;5017287;28;20077;-73
2022/11/24 02:56:25;;;;;;;32.17;9.77;;;6.00;99.90;;;;;;5017347;28;20108;-73
2022/11/24 02:58:51;;;;;;;46.42;9.40;;;6.00;99.90;;;;;;5016780;28;20065;-73
2022/11/24 03:01:17;;;;;;;37.83;9.82;;;6.00;99.90;;;;;;5017692;28;20038;-73
2022/11/24 03:03:43;;;;;;;39.55;9.55;;;6.00;99.90;;;;;;5019420;28;20050;-74
2022/11/24 03:06:09;;;;;;;36.20;8.70;;;6.00;99.90;;;;;;5036626;28;20047;-76
2022/11/24 03:08:34;;;;;;;47.10;10.38;;;6.00;99.90;;;;;;5036708;28;20051;-73
2022/11/24 03:11:01;;;;;;;46.38;10.75;;;6.00;99.90;;;;;;5037375;28;20397;-73
2022/11/24 03:13:26;;;;;;;35.05;9.25;;;6.00;99.90;;;;;;5036281;28;20045;-73
2022/11/24 03:15:52;;;;;;;46.35;9.98;;;6.00;99.90;;;;;;5019099;28;20103;-73
2022/11/24 03:18:18;;;;;;;45.90;9.25;;;6.10;99.90;;;;;;5036577;28;20421;-74
2022/11/24 03:20:43;;;;;;;39.58;10.90;;;6.00;99.90;;;;;;5036898;28;20499;-73
2022/11/24 03:23:09;;;;;;;38.67;9.73;;;6.10;99.90;;;;;;5036546;28;20489;-74
2022/11/24 03:25:35;;;;;;;36.88;9.15;;;6.10;99.90;;;;;;5036429;28;20366;-74
2022/11/24 03:28:00;;;;;;;39.67;9.65;;;6.00;99.90;;;;;;5036497;28;20096;-73
2022/11/24 03:30:26;;;;;;;42.00;9.95;;;6.10;99.90;;;;;;5017459;28;20170;-73
2022/11/24 03:32:52;;;;;;;42.75;10.20;;;6.10;99.90;;;;;;5016418;28;20406;-73
2022/11/24 03:35:19;;;;;;;39.38;9.02;;;6.20;99.90;;;;;;5016358;28;20061;-73
2022/11/24 03:37:45;;;;;;;40.20;8.85;;;6.20;99.90;;;;;;4999545;28;20404;-73
2022/11/24 03:40:11;;;;;;;36.88;9.15;;;6.20;99.90;;;;;;5016488;28;20128;-73
2022/11/24 03:42:36;;;;;;;48.72;9.45;;;6.30;99.90;;;;;;5016628;28;20335;-72
2022/11/24 03:45:03;;;;;;;43.63;10.07;;;6.30;99.90;;;;;;5016468;28;20350;-73
2022/11/24 03:47:28;;;;;;;43.90;9.40;;;6.30;99.90;;;;;;5016571;28;20042;-73
2022/11/24 03:49:54;;;;;;;43.65;9.82;;;6.40;99.90;;;;;;5016572;28;20513;-73
2022/11/24 03:52:19;;;;;;;40.38;8.52;;;6.40;99.90;;;;;;5016437;28;20081;-74
2022/11/24 03:54:46;;;;;;;42.95;8.38;;;6.40;99.90;;;;;;5015854;28;20085;-73
2022/11/24 03:57:12;;;;;;;42.08;8.48;;;6.40;99.90;;;;;;5035804;28;20441;-73
2022/11/24 03:59:38;;;;;;;36.60;8.18;;;6.30;99.90;;;;;;5035746;28;20045;-73
2022/11/24 04:02:04;;;;;;;43.40;8.30;;;6.30;99.90;;;;;;5024377;28;20125;-73
2022/11/24 04:04:29;;;;;;;36.97;8.80;;;6.30;99.90;;;;;;5036059;28;20077;-73
2022/11/24 04:06:55;;;;;;;36.78;7.82;;;6.30;99.90;;;;;;5035652;28;20045;-73
2022/11/24 04:09:21;;;;;;;43.50;8.52;;;6.20;99.90;;;;;;5036255;28;20041;-73
2022/11/24 04:14:30;;;;;;;37.53;7.53;;;6.10;99.90;;;;;;5035726;28;20428;-73
2022/11/24 04:16:56;;;;;;;36.03;7.75;;;6.10;99.90;;;;;;5023121;28;20117;-73
2022/11/24 04:19:21;;;;;;;37.88;7.22;;;6.10;99.90;;;;;;5015456;28;20429;-73
2022/11/24 04:21:47;;;;;;;42.55;8.50;;;6.00;99.90;;;;;;5015767;28;20136;-73
2022/11/24 04:24:13;;;;;;;33.63;8.13;;;6.00;99.90;;;;;;5015793;28;20068;-74
2022/11/24 04:26:39;;;;;;;36.47;7.38;;;6.00;99.90;;;;;;5016042;28;20422;-73
2022/11/24 04:29:05;;;;;;;33.30;7.50;;;6.00;99.90;;;;;;5015863;28;20073;-74
2022/11/24 04:31:30;;;;;;;47.25;7.97;;;6.00;99.90;;;;;;5015118;28;20437;-73
2022/11/24 04:33:56;;;;;;;44.83;8.68;;;5.90;99.90;;;;;;5015264;28;20045;-74
2022/11/24 04:36:21;;;;;;;40.17;8.20;;;6.00;99.90;;;;;;5015324;28;20454;-73
2022/11/24 04:38:47;;;;;;;36.38;7.30;;;5.90;99.90;;;;;;5015746;28;20046;-73
2022/11/24 04:41:12;;;;;;;40.85;7.40;;;5.90;99.90;;;;;;5015663;28;20038;-73
2022/11/24 04:43:38;;;;;;;40.47;7.57;;;5.90;99.90;;;;;;5015625;28;20034;-74
2022/11/24 04:46:04;;;;;;;41.70;6.93;;;5.80;99.90;;;;;;5015128;28;20125;-73
2022/11/24 04:48:29;;;;;;;34.85;6.53;;;5.90;99.90;;;;;;5019531;28;20041;-73
2022/11/24 04:50:55;;;;;;;35.75;6.88;;;5.80;99.90;;;;;;5017934;28;20103;-73
2022/11/24 04:53:20;;;;;;;35.65;7.80;;;5.80;99.90;;;;;;5035216;28;20045;-73
2022/11/24 04:55:46;;;;;;;37.83;7.80;;;5.80;99.90;;;;;;5034924;28;20454;-73
2022/11/24 04:58:14;;;;;;;36.45;6.70;;;5.70;99.90;;;;;;5036166;28;20045;-72
2022/11/24 05:00:40;;;;;;;33.13;7.07;;;5.70;99.90;;;;;;5019035;28;20136;-73
2022/11/24 05:03:07;;;;;;;35.45;7.03;;;5.70;99.90;;;;;;5027100;28;20521;-70
2022/11/24 05:05:32;;;;;;;41.00;7.78;;;5.60;99.90;;;;;;5024945;28;20045;-72
2022/11/24 05:07:59;;;;;;;38.50;7.57;;;5.60;99.90;;;;;;5040801;28;20044;-73
2022/11/24 05:10:33;;;;;;;36.92;7.25;;;5.60;99.90;;;;;;5021650;28;20042;-73
2022/11/24 05:13:00;;;;;;;42.88;7.70;;;5.60;99.90;;;;;;5021618;28;20048;-72
2022/11/24 05:15:26;;;;;;;34.70;6.95;;;5.60;99.90;;;;;;5021920;28;20108;-73
2022/11/24 05:17:51;;;;;;;38.40;7.28;;;5.60;99.90;;;;;;5021593;28;20470;-74
2022/11/24 05:20:17;;;;;;;36.70;7.38;;;5.60;99.90;;;;;;5021559;28;20125;-73
2022/11/24 05:22:43;;;;;;;36.38;6.95;;;5.60;99.90;;;;;;5021708;28;20119;-71
2022/11/24 05:25:09;;;;;;;42.78;7.72;;;5.60;99.90;;;;;;5004305;28;20476;-71
2022/11/24 05:27:35;;;;;;;38.97;6.57;;;5.50;99.90;;;;;;5021510;28;20125;-73
2022/11/24 05:30:01;;;;;;;38.80;6.68;;;5.50;99.90;;;;;;5041208;28;20043;-72
2022/11/24 05:32:26;;;;;;;35.65;6.53;;;5.50;99.90;;;;;;5041250;28;20087;-72
2022/11/24 05:34:53;;;;;;;30.88;6.80;;;5.50;99.90;;;;;;5023714;28;20045;-73
2022/11/24 05:37:19;;;;;;;37.85;6.45;;;5.40;99.90;;;;;;5041191;28;20037;-73
2022/11/24 05:39:45;;;;;;;32.55;6.15;;;5.40;99.90;;;;;;5041514;28;20037;-72
2022/11/24 05:44:56;;;;;;;36.08;7.07;;;5.30;99.90;;;;;;5020813;28;20041;-72
2022/11/24 05:47:22;;;;;;;44.38;7.13;;;5.40;99.90;;;;;;5021466;28;20155;-72
2022/11/24 05:49:49;;;;;;;29.83;6.72;;;5.30;99.90;;;;;;5021375;28;20046;-74
2022/11/24 05:52:15;;;;;;;33.00;6.20;;;5.30;99.90;;;;;;5021679;28;20422;-73
2022/11/24 05:54:41;;;;;;;45.88;7.70;;;5.30;99.90;;;;;;5021376;28;20120;-72
2022/11/24 05:57:06;;;;;;;36.78;6.50;;;5.30;99.90;;;;;;5020545;28;20105;-70
2022/11/24 05:59:32;;;;;;;30.15;7.15;;;5.30;99.90;;;;;;5041286;28;20037;-70
2022/11/24 06:01:58;;;;;;;35.47;6.55;;;5.30;99.90;;;;;;5023846;28;20060;-73
2022/11/24 06:04:24;;;;;;;31.95;6.85;;;5.30;99.90;;;;;;5041151;28;20041;-73
2022/11/24 06:06:49;;;;;;;41.50;8.00;;;5.40;99.90;;;;;;5041152;28;20092;-73
2022/11/24 06:09:15;;;;;;;32.42;6.82;;;5.30;99.90;;;;;;5004674;28;20168;-73
2022/11/24 06:11:41;;;;;;;39.55;7.57;;;5.40;99.90;;;;;;5040770;28;20513;-73
2022/11/24 06:14:06;;;;;;;30.05;7.00;;;5.30;99.90;;;;;;5037295;28;20033;-73
2022/11/24 06:16:32;;;;;;;32.15;7.22;;;5.30;99.90;;;;;;5037759;28;20071;-73
2022/11/24 06:18:59;;;;;;;37.83;7.38;;;5.40;99.90;;;;;;5037615;28;20139;-73
2022/11/24 06:21:24;;;;;;;46.42;7.88;;;5.40;99.90;;;;;;5037722;28;20067;-74
2022/11/24 06:23:50;;;;;;;24.67;6.25;;;5.40;99.90;;;;;;5037959;28;20128;-73
2022/11/24 06:26:17;;;;;;;26.92;6.18;;;5.40;99.90;;;;;;5017229;28;20113;-73
2022/11/24 06:28:43;;;;;;;35.50;7.10;;;5.30;99.90;;;;;;5017460;28;20487;-73
2022/11/24 06:31:09;;;;;;;30.70;6.75;;;5.30;99.90;;;;;;5017604;28;20045;-74
2022/11/24 06:33:36;;;;;;;36.95;6.50;;;5.30;99.90;;;;;;5017701;28;20085;-73
2022/11/24 06:36:04;;;;;;;47.25;7.43;;;5.30;99.90;;;;;;5018141;28;20335;-73
2022/11/24 06:38:30;;;;;;;40.60;7.10;;;5.30;99.90;;;;;;5017548;28;20363;-73
2022/11/24 06:40:58;;;;;;;33.58;6.80;;;5.20;99.90;;;;;;5017397;28;20042;-73
2022/11/24 06:43:26;;;;;;;44.92;7.97;;;5.20;99.90;;;;;;4997996;28;20038;-73
2022/11/24 06:45:52;;;;;;;30.30;6.82;;;5.20;99.90;;;;;;4998219;28;20045;-73
2022/11/24 06:48:17;;;;;;;28.90;6.70;;;5.20;99.90;;;;;;4997959;28;20043;-73
2022/11/24 06:50:43;;;;;;;35.10;7.03;;;5.20;99.90;;;;;;4998026;28;20129;-73
2022/11/24 06:53:08;;;;;;;28.25;6.50;;;5.20;99.90;;;;;;4997948;28;20054;-73
2022/11/24 06:55:34;;;;;;;39.53;6.75;;;5.20;99.90;;;;;;5024508;28;20045;-73
2022/11/24 06:58:00;;;;;;;35.20;7.05;;;5.20;99.90;;;;;;5019987;28;20045;-74
2022/11/24 07:00:28;;;;;;;32.35;6.20;;;5.20;99.90;;;;;;5036964;28;20053;-73
2022/11/24 07:02:53;;;;;;;30.50;7.30;;;5.20;99.90;;;;;;5037226;28;20056;-75
2022/11/24 07:05:19;;;;;;;32.58;7.18;;;5.20;99.90;;;;;;5037596;28;20038;-73
2022/11/24 07:07:44;;;;;;;33.97;7.25;;;5.30;99.90;;;;;;5036613;28;20425;-74
2022/11/24 07:10:10;;;;;;;32.45;6.55;;;5.30;99.90;;;;;;5023986;28;20185;-73
2022/11/24 07:12:35;;;;;;;28.80;7.15;;;5.30;99.90;;;;;;5036524;28;20055;-73
2022/11/24 07:15:01;;;;;;;36.08;7.78;;;5.30;99.90;;;;;;5036327;28;20045;-73
2022/11/24 07:17:26;;;;;;;39.58;7.32;;;5.30;99.90;;;;;;5036780;28;20037;-73
2022/11/24 07:19:52;;;;;;;36.03;6.95;;;5.30;99.90;;;;;;5036626;28;20042;-74
2022/11/24 07:22:18;;;;;;;23.65;6.70;;;5.40;99.90;;;;;;5036683;28;20049;-73
2022/11/24 07:24:43;;;;;;;31.15;6.97;;;5.40;99.90;;;;;;5001021;28;20118;-73
2022/11/24 07:27:09;;;;;;;35.28;7.68;;;5.40;99.90;;;;;;5036098;28;20038;-73
2022/11/24 07:29:34;;;;;;;34.63;6.78;;;5.50;99.90;;;;;;5036863;28;20090;-73
2022/11/24 07:32:00;;;;;;;39.40;7.55;;;5.50;99.90;;;;;;5036181;28;20350;-73
2022/11/24 07:34:25;;;;;;;35.80;7.40;;;5.50;99.90;;;;;;5036930;28;20092;-73
2022/11/24 07:36:51;;;;;;;33.55;7.70;;;5.50;99.90;;;;;;5036334;28;20045;-72
2022/11/24 07:39:16;;;;;;;33.65;7.18;;;5.50;99.90;;;;;;5027341;28;20081;-73
2022/11/24 07:41:42;;;;;;;33.90;8.18;;;5.50;99.90;;;;;;5017027;28;20053;-73
2022/11/24 07:44:07;;;;;;;34.55;7.75;;;5.50;99.90;;;;;;5035878;28;20044;-73
2022/11/24 07:46:33;;;;;;;36.85;7.40;;;5.50;99.90;;;;;;5036685;28;20127;-74
2022/11/24 07:48:58;;;;;;;31.52;7.22;;;5.50;99.90;;;;;;5036510;28;20041;-73
2022/11/24 07:51:24;;;;;;;35.65;7.97;;;5.50;99.90;;;;;;5036115;28;20049;-73
2022/11/24 07:53:50;;;;;;;44.25;8.82;;;5.50;99.90;;;;;;5035527;28;20041;-73
2022/11/24 07:56:15;;;;;;;35.88;7.68;;;5.80;99.90;;;;;;5035920;28;20042;-73
2022/11/24 07:58:41;;;;;;;41.15;8.18;;;5.50;99.90;;;;;;5035778;28;20434;-73
2022/11/24 08:01:16;;;;;;;35.80;8.50;;;5.40;99.90;;;;;;5036088;28;20370;-73
2022/11/24 08:03:43;;;;;;;39.40;8.77;;;5.40;99.90;;;;;;5022643;28;20038;-72
2022/11/24 08:06:09;;;;;;;39.70;8.70;;;5.40;99.90;;;;;;5018205;28;20057;-73
2022/11/24 08:08:35;;;;;;;44.05;9.85;;;5.40;99.90;;;;;;5035500;28;20111;-73
2022/11/24 08:11:09;;;;;;;28.75;8.38;;;5.40;99.90;;;;;;5035653;28;20057;-73
2022/11/24 08:13:35;;;;;;;33.63;8.57;;;5.40;99.90;;;;;;5035822;28;20465;-73
2022/11/24 08:16:06;;;;;;;36.25;9.52;;;5.40;99.90;;;;;;5035196;28;20453;-73
2022/11/24 08:18:33;;;;;;;36.35;9.55;;;5.50;99.90;;;;;;5022464;28;20042;-73
2022/11/24 08:20:59;;;;;;;43.08;9.40;;;5.50;99.90;;;;;;5014932;28;20065;-73
2022/11/24 08:23:25;;;;;;;38.50;8.95;;;5.60;99.90;;;;;;5023683;28;20058;-73
2022/11/24 08:25:51;;;;;;;37.72;9.73;;;5.60;99.90;;;;;;5015665;28;20128;-74
2022/11/24 08:28:16;;;;;;;33.30;9.48;;;5.70;99.90;;;;;;5015710;28;20403;-73
2022/11/24 08:30:42;;;;;;;34.20;9.10;;;5.80;99.90;;;;;;5015703;28;20046;-73
2022/11/24 08:33:07;;;;;;;36.60;10.02;;;5.80;99.90;;;;;;5015412;28;20037;-73
2022/11/24 08:35:37;;;;;;;37.50;10.02;;;5.90;99.90;;;;;;5015564;28;20359;-72
2022/11/24 08:38:04;;;;;;;32.83;9.38;;;6.00;99.90;;;;;;5014841;28;20080;-73
2022/11/24 08:40:30;;;;;;;30.88;9.52;;;5.90;99.90;;;;;;5029021;28;20121;-73
2022/11/24 08:42:59;;;;;;;37.03;10.00;;;6.00;99.90;;;;;;5034911;28;20041;-73
2022/11/24 08:45:26;;;;;;;35.67;9.43;;;6.00;99.90;;;;;;5035047;28;20438;-74
2022/11/24 08:47:53;;;;;;;31.92;10.10;;;6.00;99.90;;;;;;5035189;28;20080;-73
2022/11/24 08:50:19;;;;;;;39.80;10.75;;;6.00;99.90;;;;;;5035297;28;20084;-74
2022/11/24 08:52:45;;;;;;;36.25;9.95;;;6.10;99.90;;;;;;5035215;28;20047;-73
2022/11/24 08:55:10;;;;;;;30.75;10.88;;;6.10;99.90;;;;;;5029279;28;20083;-74
2022/11/24 08:57:36;;;;;;;37.28;10.57;;;6.20;99.90;;;;;;5015040;28;20046;-73
2022/11/24 09:00:03;;;;;;;35.65;10.63;;;6.20;99.90;;;;;;5014733;28;20050;-72
2022/11/24 09:02:29;;;;;;;33.45;11.50;;;6.30;99.90;;;;;;5015828;28;20350;-72
2022/11/24 09:04:54;;;;;;;35.22;11.45;;;6.30;99.90;;;;;;5034714;28;20041;-74
2022/11/24 09:07:20;;;;;;;36.50;11.02;;;6.30;99.90;;;;;;5034585;28;20102;-72
2022/11/24 09:09:45;;;;;;;28.50;9.68;;;6.30;99.90;;;;;;5034476;28;20045;-73
2022/11/24 09:12:11;;;;;;;33.15;9.63;;;6.40;99.90;;;;;;5034973;28;20119;-74
2022/11/24 09:14:37;;;;;;;32.67;10.23;;;6.40;99.90;;;;;;5024838;28;20044;-73
2022/11/24 09:17:02;;;;;;;34.25;10.98;;;6.50;99.90;;;;;;5014449;28;20361;-74
2022/11/24 09:19:28;;;;;;;26.48;9.27;;;6.50;99.90;;;;;;5015139;28;20046;-75
2022/11/24 09:21:53;;;;;;;22.27;8.68;;;6.60;99.90;;;;;;5034579;28;20061;-72
2022/11/24 09:24:19;;;;;;;23.10;8.70;;;6.60;99.90;;;;;;5034742;28;20041;-73
2022/11/24 09:26:45;;;;;;;20.23;8.88;;;6.70;99.90;;;;;;5035354;28;20076;-73
2022/11/24 09:29:11;;;;;;;25.92;8.50;;;6.80;99.90;;;;;;5034811;28;20049;-73
2022/11/24 09:31:38;;;;;;;30.25;8.73;;;6.90;99.90;;;;;;5019061;28;20046;-73
2022/11/24 09:34:06;;;;;;;18.95;8.02;;;7.00;99.90;;;;;;5034288;28;20114;-74
2022/11/24 09:36:32;;;;;;;27.38;8.15;;;7.00;99.90;;;;;;5034441;28;20053;-74
2022/11/24 09:38:58;;;;;;;20.05;7.50;;;7.00;99.90;;;;;;5035013;28;20120;-74
2022/11/24 09:41:37;;;;;;;18.63;6.97;;;7.00;99.90;;;;;;5034438;28;20107;-73
2022/11/24 09:44:31;;;;;;;16.27;6.68;;;7.10;99.90;;;;;;5032042;28;20095;-74
2022/11/24 09:47:38;;;;;;;18.27;6.63;;;7.10;99.90;;;;;;5015259;28;20050;-73
2022/11/24 09:50:11;;;;;;;14.52;6.60;;;7.10;99.90;;;;;;5018377;28;20042;-73
2022/11/24 09:52:47;;;;;;;13.03;6.60;;;7.20;99.90;;;;;;5018600;28;20068;-73
2022/11/24 09:55:36;;;;;;;20.25;7.07;;;7.20;99.90;;;;;;5018036;28;20045;-74
2022/11/24 09:58:37;;;;;;;19.90;6.75;;;7.20;99.90;;;;;;5037807;28;20413;-73
2022/11/24 10:01:29;;;;;;;15.85;6.43;;;7.20;99.90;;;;;;5030973;28;20123;-73
2022/11/24 10:03:55;;;;;;;21.70;6.47;;;7.20;99.90;;;;;;5027227;28;20049;-73
2022/11/24 10:06:33;;;;;;;19.70;6.32;;;7.20;99.90;;;;;;5038258;28;20049;-73
2022/11/24 10:09:02;;;;;;;17.13;6.43;;;7.30;99.90;;;;;;5020276;28;20059;-74
2022/11/24 10:11:52;;;;;;;18.10;6.32;;;7.30;99.90;;;;;;5038465;28;20559;-73
2022/11/24 10:14:20;;;;;;;16.30;5.75;;;7.30;99.90;;;;;;5029023;28;20454;-73
2022/11/24 10:17:00;;;;;;;18.95;6.07;;;7.30;99.90;;;;;;5018313;28;20334;-74
2022/11/24 10:19:48;;;;;;;12.07;4.93;;;7.40;99.90;;;;;;5037702;28;20150;-73
2022/11/24 10:22:22;;;;;;;15.05;5.07;;;7.40;99.90;;;;;;5037503;28;20135;-73
2022/11/24 10:25:00;;;;;;;11.90;5.10;;;7.50;99.90;;;;;;5037490;28;20136;-74
2022/11/24 10:27:33;;;;;;;13.02;4.78;;;7.50;99.90;;;;;;5037680;28;20060;-73
2022/11/24 10:30:00;;;;;;;11.48;5.00;;;7.50;99.90;;;;;;5021508;28;20069;-74
2022/11/24 10:32:31;;;;;;;13.13;4.85;;;7.50;99.90;;;;;;5019876;28;20049;-73
2022/11/24 10:35:11;;;;;;;10.30;4.70;;;7.60;99.90;;;;;;5037178;28;20060;-74
2022/11/24 10:37:43;;;;;;;13.00;4.82;;;7.60;99.90;;;;;;5037854;28;20050;-73
2022/11/24 10:40:16;;;;;;;10.85;4.55;;;7.70;99.90;;;;;;5037478;28;20045;-74
2022/11/24 10:42:42;;;;;;;11.13;4.22;;;7.70;99.90;;;;;;5037178;28;20215;-73
2022/11/24 10:45:13;;;;;;;11.73;4.65;;;7.80;99.90;;;;;;5018044;28;20158;-73
2022/11/24 10:47:40;;;;;;;13.77;4.47;;;7.80;99.90;;;;;;5017641;28;20389;-73
2022/11/24 10:50:27;;;;;;;14.25;4.28;;;7.80;99.90;;;;;;4983232;28;20360;-73
2022/11/24 10:53:07;;;;;;;11.88;4.22;;;7.80;99.90;;;;;;5017511;28;20077;-74
2022/11/24 10:55:55;;;;;;;13.07;4.80;;;8.30;99.90;;;;;;5037191;28;20401;-73
2022/11/24 10:58:28;;;;;;;13.27;4.97;;;7.80;99.90;;;;;;5036406;28;20233;-74
2022/11/24 11:00:55;;;;;;;13.45;5.03;;;7.80;99.90;;;;;;5037027;28;20121;-74
2022/11/24 11:03:24;;;;;;;13.10;4.47;;;7.80;99.90;;;;;;5036993;28;20049;-73
2022/11/24 11:05:53;;;;;;;16.33;5.20;;;7.90;99.90;;;;;;5036869;28;20042;-75
2022/11/24 11:08:25;;;;;;;10.68;4.35;;;7.90;99.90;;;;;;5036645;28;20123;-74
2022/11/24 11:11:11;;;;;;;14.57;5.57;;;8.00;99.90;;;;;;5036469;28;20124;-73
2022/11/24 11:13:37;;;;;;;9.52;4.57;;;8.00;99.90;;;;;;5036334;28;20049;-74
2022/11/24 11:16:21;;;;;;;9.25;4.43;;;8.00;99.90;;;;;;5037281;28;20129;-75
2022/11/24 11:18:48;;;;;;;10.90;4.85;;;8.00;99.90;;;;;;5019104;28;20055;-73
2022/11/24 11:21:27;;;;;;;13.40;5.20;;;8.00;99.90;;;;;;5036256;28;20382;-73
2022/11/24 11:23:53;;;;;;;14.82;5.90;;;8.00;99.90;;;;;;5036613;28;20449;-73
2022/11/24 11:26:33;;;;;;;12.90;5.72;;;8.00;99.90;;;;;;5036589;28;20052;-73
2022/11/24 11:29:00;;;;;;;10.73;5.10;;;8.00;99.90;;;;;;5020404;28;20042;-73
2022/11/24 11:31:27;;;;;;;13.25;6.03;;;8.00;99.90;;;;;;5016551;28;20053;-73
2022/11/24 11:34:08;;;;;;;13.05;5.70;;;8.10;99.90;;;;;;5016755;28;20042;-74
2022/11/24 11:36:38;;;;;;;12.40;6.15;;;8.10;99.90;;;;;;5016690;28;20038;-75
2022/11/24 11:39:04;;;;;;;12.48;5.43;;;8.10;99.90;;;;;;4999401;28;20492;-73
2022/11/24 11:41:34;;;;;;;14.60;5.57;;;8.10;99.90;;;;;;5015772;28;20046;-73
2022/11/24 11:44:41;;;;;;;9.93;5.60;;;8.20;99.90;;;;;;5036702;28;20358;-73
2022/11/24 11:47:34;;;;;;;17.13;6.18;;;8.20;99.90;;;;;;5022016;28;20056;-73
2022/11/24 11:50:00;;;;;;;14.20;6.13;;;8.20;99.90;;;;;;5036507;28;20045;-73
2022/11/24 11:52:46;;;;;;;17.77;5.95;;;8.20;99.90;;;;;;5035609;28;20038;-73
2022/11/24 11:55:50;;;;;;;14.15;5.47;;;8.30;99.90;;;;;;5035546;28;20037;-73
2022/11/24 11:58:51;;;;;;;15.80;6.05;;;8.40;99.90;;;;;;5034695;28;20122;-72
2022/11/24 12:01:54;;;;;;;12.55;5.72;;;8.40;99.90;;;;;;4996268;28;20138;-73
2022/11/24 12:04:59;;;;;;;15.20;4.90;;;8.40;99.90;;;;;;4996200;28;20042;-74
2022/11/24 12:07:40;;;;;;;15.90;5.82;;;8.50;99.90;;;;;;4983061;28;20055;-74
2022/11/24 12:10:12;;;;;;;15.52;5.43;;;8.50;99.90;;;;;;5004515;28;20053;-73
2022/11/24 12:13:12;;;;;;;18.10;5.43;;;8.50;99.90;;;;;;5015276;28;20046;-73
2022/11/24 12:16:02;;;;;;;11.88;4.78;;;8.50;99.90;;;;;;5015787;28;20060;-73
2022/11/24 12:18:48;;;;;;;11.57;4.60;;;8.60;99.90;;;;;;5035489;28;20103;-74
2022/11/24 12:21:22;;;;;;;18.13;5.13;;;8.70;99.90;;;;;;5035381;28;20049;-74
2022/11/24 12:24:08;;;;;;;;;;;8.70;99.90;;;;;;5035812;28;20053;-75
2022/11/24 12:26:40;;;;;;;17.33;4.30;;;8.80;99.90;;;;;;5035864;28;20326;-74
2022/11/24 12:29:43;;;;;;;14.45;5.22;;;8.80;99.90;;;;;;5035507;28;20060;-73
2022/11/24 12:32:27;;;;;;;21.45;5.05;;;8.80;99.90;;;;;;5035473;28;20146;-74
2022/11/24 12:34:57;;;;;;;16.85;4.93;;;8.90;99.90;;;;;;5035465;28;20060;-73
2022/11/24 12:38:04;;;;;;;15.55;5.10;;;9.20;99.90;;;;;;5035367;28;20049;-74
2022/11/24 12:40:54;;;;;;;19.83;5.47;;;8.90;99.90;;;;;;5018838;28;20387;-73
2022/11/24 12:43:31;;;;;;;18.23;4.93;;;8.90;99.90;;;;;;5016208;28;20050;-73
2022/11/24 12:46:52;;;;;;;14.77;5.32;;;9.00;99.90;;;;;;5015507;28;20410;-73
2022/11/24 12:49:48;;;;;;;16.88;4.93;;;9.00;99.90;;;;;;4977782;28;20053;-73
2022/11/24 12:52:25;;;;;;;16.80;4.70;;;9.00;99.90;;;;;;5015380;28;20121;-74
2022/11/24 12:54:51;;;;;;;15.80;5.30;;;9.00;99.90;;;;;;5015050;28;20136;-74
2022/11/24 12:57:21;;;;;;;13.63;4.40;;;9.00;99.90;;;;;;5015130;28;20065;-74
2022/11/24 13:00:06;;;;;;;16.23;5.13;;;9.10;99.90;;;;;;5015370;28;20100;-74
2022/11/24 13:02:41;;;;;;;15.00;5.07;;;9.10;99.90;;;;;;5015425;28;20038;-73
2022/11/24 13:05:31;;;;;;;16.13;4.65;;;9.20;99.90;;;;;;5015483;28;20053;-73